sensor_id;sensor_type;location;lat;lon;timestamp;temperature;humidity
16966;DHT22;8599;47.852;12.070;2022-11-15T00:00:57;3.90;99.90
16966;DHT22;8599;47.852;12.070;2022-11-15T00:03:25;3.80;99.90
16966;DHT22;8599;47.852;12.070;2022-11-15T00:05:52;3.90;99.90
16966;DHT22;8599;47.852;12.070;2022-11-15T00:08:19;3.80;99.90
16966;DHT22;8599;47.852;12.070;2022-11-15T00:10:54;3.70;99.90
16966;DHT22;8599;47.852;12.070;2022-11-15T00:13:21;3.70;99.90
16966;DHT22;8599;47.852;12.070;2022-11-15T00:15:48;3.70;99.90
16966;DHT22;8599;47.852;12.070;2022-11-15T00:18:16;3.70;99.90
16966;DHT22;8599;47.852;12.070;2022-11-15T00:20:43;3.70;99.90
16966;DHT22;8599;47.852;12.070;2022-11-15T00:23:10;3.70;99.90
16966;DHT22;8599;47.852;12.070;2022-11-15T00:25:37;3.70;99.90
16966;DHT22;8599;47.852;12.070;2022-11-15T00:28:04;3.50;99.90
16966;DHT22;8599;47.852;12.070;2022-11-15T00:30:31;3.40;99.90
16966;DHT22;8599;47.852;12.070;2022-11-15T00:33:02;3.30;99.90
16966;DHT22;8599;47.852;12.070;2022-11-15T00:35:31;3.30;99.90
16966;DHT22;8599;47.852;12.070;2022-11-15T00:37:58;3.30;99.90
16966;DHT22;8599;47.852;12.070;2022-11-15T00:40:25;3.30;99.90
16966;DHT22;8599;47.852;12.070;2022-11-15T00:42:52;3.30;99.90
16966;DHT22;8599;47.852;12.070;2022-11-15T00:45:19;3.30;99.90
16966;DHT22;8599;47.852;12.070;2022-11-15T00:47:45;3.10;99.90
16966;DHT22;8599;47.852;12.070;2022-11-15T00:50:13;3.10;99.90
16966;DHT22;8599;47.852;12.070;2022-11-15T00:52:41;3.10;99.90
16966;DHT22;8599;47.852;12.070;2022-11-15T00:55:09;3.20;99.90
16966;DHT22;8599;47.852;12.070;2022-11-15T00:57:40;3.20;99.90
16966;DHT22;8599;47.852;12.070;2022-11-15T01:00:07;3.10;99.90
16966;DHT22;8599;47.852;12.070;2022-11-15T01:02:34;3.10;99.90
16966;DHT22;8599;47.852;12.070;2022-11-15T01:05:01;3.20;99.90
16966;DHT22;8599;47.852;12.070;2022-11-15T01:07:28;3.20;99.90
16966;DHT22;8599;47.852;12.070;2022-11-15T01:09:56;3.20;99.90
16966;DHT22;8599;47.852;12.070;2022-11-15T01:12:23;3.10;99.90
16966;DHT22;8599;47.852;12.070;2022-11-15T01:14:50;3.10;99.90
16966;DHT22;8599;47.852;12.070;2022-11-15T01:17:17;3.10;99.90
16966;DHT22;8599;47.852;12.070;2022-11-15T01:19:43;3.10;99.90
16966;DHT22;8599;47.852;12.070;2022-11-15T01:22:10;3.10;99.90
16966;DHT22;8599;47.852;12.070;2022-11-15T01:24:37;3.10;99.90
16966;DHT22;8599;47.852;12.070;2022-11-15T01:27:05;3.00;99.90
16966;DHT22;8599;47.852;12.070;2022-11-15T01:29:32;2.80;99.90
16966;DHT22;8599;47.852;12.070;2022-11-15T01:31:59;2.70;99.90
16966;DHT22;8599;47.852;12.070;2022-11-15T01:34:26;2.60;99.90
16966;DHT22;8599;47.852;12.070;2022-11-15T01:36:53;2.60;99.90
16966;DHT22;8599;47.852;12.070;2022-11-15T01:39:20;2.70;99.90
16966;DHT22;8599;47.852;12.070;2022-11-15T01:41:46;2.70;99.90
16966;DHT22;8599;47.852;12.070;2022-11-15T01:44:37;2.80;99.90
16966;DHT22;8599;47.852;12.070;2022-11-15T01:47:08;2.80;99.90
16966;DHT22;8599;47.852;12.070;2022-11-15T01:49:39;2.60;99.90
16966;DHT22;8599;47.852;12.070;2022-11-15T01:52:09;2.60;99.90
16966;DHT22;8599;47.852;12.070;2022-11-15T01:54:40;2.70;99.90
16966;DHT22;8599;47.852;12.070;2022-11-15T01:57:09;2.80;99.90
16966;DHT22;8599;47.852;12.070;2022-11-15T01:59:39;2.80;99.90
16966;DHT22;8599;47.852;12.070;2022-11-15T02:02:07;2.90;99.90
16966;DHT22;8599;47.852;12.070;2022-11-15T02:04:37;2.90;99.90
16966;DHT22;8599;47.852;12.070;2022-11-15T02:07:08;2.80;99.90
16966;DHT22;8599;47.852;12.070;2022-11-15T02:09:36;2.80;99.90
16966;DHT22;8599;47.852;12.070;2022-11-15T02:12:04;2.70;99.90
16966;DHT22;8599;47.852;12.070;2022-11-15T02:14:32;2.70;99.90
16966;DHT22;8599;47.852;12.070;2022-11-15T02:17:13;2.70;99.90
16966;DHT22;8599;47.852;12.070;2022-11-15T02:20:14;2.70;99.90
16966;DHT22;8599;47.852;12.070;2022-11-15T02:22:57;2.70;99.90
16966;DHT22;8599;47.852;12.070;2022-11-15T02:25:38;2.60;99.90
16966;DHT22;8599;47.852;12.070;2022-11-15T02:28:28;2.60;99.90
16966;DHT22;8599;47.852;12.070;2022-11-15T02:31:03;2.60;99.90
16966;DHT22;8599;47.852;12.070;2022-11-15T02:33:36;2.50;99.90
16966;DHT22;8599;47.852;12.070;2022-11-15T02:36:10;2.60;99.90
16966;DHT22;8599;47.852;12.070;2022-11-15T02:38:44;2.60;99.90
16966;DHT22;8599;47.852;12.070;2022-11-15T02:41:16;2.60;99.90
16966;DHT22;8599;47.852;12.070;2022-11-15T02:43:48;2.60;99.90
16966;DHT22;8599;47.852;12.070;2022-11-15T02:46:31;2.50;99.90
16966;DHT22;8599;47.852;12.070;2022-11-15T02:49:17;2.50;99.90
16966;DHT22;8599;47.852;12.070;2022-11-15T02:51:46;2.50;99.90
16966;DHT22;8599;47.852;12.070;2022-11-15T02:54:17;2.60;99.90
16966;DHT22;8599;47.852;12.070;2022-11-15T02:56:46;2.50;99.90
16966;DHT22;8599;47.852;12.070;2022-11-15T02:59:29;2.50;99.90
16966;DHT22;8599;47.852;12.070;2022-11-15T03:02:14;2.40;99.90
16966;DHT22;8599;47.852;12.070;2022-11-15T03:04:48;2.40;99.90
16966;DHT22;8599;47.852;12.070;2022-11-15T03:07:22;2.30;99.90
16966;DHT22;8599;47.852;12.070;2022-11-15T03:09:53;2.40;99.90
16966;DHT22;8599;47.852;12.070;2022-11-15T03:12:26;2.40;99.90
16966;DHT22;8599;47.852;12.070;2022-11-15T03:14:56;2.40;99.90
16966;DHT22;8599;47.852;12.070;2022-11-15T03:17:29;2.40;99.90
16966;DHT22;8599;47.852;12.070;2022-11-15T03:19:59;2.40;99.90
16966;DHT22;8599;47.852;12.070;2022-11-15T03:22:29;2.40;99.90
16966;DHT22;8599;47.852;12.070;2022-11-15T03:25:03;2.40;99.90
16966;DHT22;8599;47.852;12.070;2022-11-15T03:27:34;2.40;99.90
16966;DHT22;8599;47.852;12.070;2022-11-15T03:30:05;2.30;99.90
16966;DHT22;8599;47.852;12.070;2022-11-15T03:32:35;2.30;99.90
16966;DHT22;8599;47.852;12.070;2022-11-15T03:35:06;2.10;99.90
16966;DHT22;8599;47.852;12.070;2022-11-15T03:37:39;2.20;99.90
16966;DHT22;8599;47.852;12.070;2022-11-15T03:40:08;2.20;99.90
16966;DHT22;8599;47.852;12.070;2022-11-15T03:42:38;2.10;99.90
16966;DHT22;8599;47.852;12.070;2022-11-15T03:45:14;2.20;99.90
16966;DHT22;8599;47.852;12.070;2022-11-15T03:47:46;2.20;99.90
16966;DHT22;8599;47.852;12.070;2022-11-15T03:50:17;2.10;99.90
16966;DHT22;8599;47.852;12.070;2022-11-15T03:52:46;2.10;99.90
16966;DHT22;8599;47.852;12.070;2022-11-15T03:55:15;2.10;99.90
16966;DHT22;8599;47.852;12.070;2022-11-15T03:57:42;2.10;99.90
16966;DHT22;8599;47.852;12.070;2022-11-15T04:00:10;2.20;99.90
16966;DHT22;8599;47.852;12.070;2022-11-15T04:02:37;2.20;99.90
16966;DHT22;8599;47.852;12.070;2022-11-15T04:05:06;2.20;99.90
16966;DHT22;8599;47.852;12.070;2022-11-15T04:07:33;2.20;99.90
16966;DHT22;8599;47.852;12.070;2022-11-15T04:10:00;2.10;99.90
16966;DHT22;8599;47.852;12.070;2022-11-15T04:12:31;2.10;99.90
16966;DHT22;8599;47.852;12.070;2022-11-15T04:15:00;2.20;99.90
16966;DHT22;8599;47.852;12.070;2022-11-15T04:17:40;2.20;99.90
16966;DHT22;8599;47.852;12.070;2022-11-15T04:20:15;2.20;99.90
16966;DHT22;8599;47.852;12.070;2022-11-15T04:23:02;2.20;99.90
16966;DHT22;8599;47.852;12.070;2022-11-15T04:25:49;2.20;99.90
16966;DHT22;8599;47.852;12.070;2022-11-15T04:28:17;2.30;99.90
16966;DHT22;8599;47.852;12.070;2022-11-15T04:30:44;2.30;99.90
16966;DHT22;8599;47.852;12.070;2022-11-15T04:33:10;2.30;99.90
16966;DHT22;8599;47.852;12.070;2022-11-15T04:35:39;2.00;99.90
16966;DHT22;8599;47.852;12.070;2022-11-15T04:38:07;1.80;99.90
16966;DHT22;8599;47.852;12.070;2022-11-15T04:40:34;1.60;99.90
16966;DHT22;8599;47.852;12.070;2022-11-15T04:43:01;1.60;99.90
16966;DHT22;8599;47.852;12.070;2022-11-15T04:45:28;1.70;99.90
16966;DHT22;8599;47.852;12.070;2022-11-15T04:47:55;1.80;99.90
16966;DHT22;8599;47.852;12.070;2022-11-15T04:50:21;1.90;99.90
16966;DHT22;8599;47.852;12.070;2022-11-15T04:52:53;1.90;99.90
16966;DHT22;8599;47.852;12.070;2022-11-15T04:55:20;1.80;99.90
16966;DHT22;8599;47.852;12.070;2022-11-15T04:57:47;1.80;99.90
16966;DHT22;8599;47.852;12.070;2022-11-15T05:00:16;1.90;99.90
16966;DHT22;8599;47.852;12.070;2022-11-15T05:02:43;1.90;99.90
16966;DHT22;8599;47.852;12.070;2022-11-15T05:05:27;1.90;99.90
16966;DHT22;8599;47.852;12.070;2022-11-15T05:07:55;1.90;99.90
16966;DHT22;8599;47.852;12.070;2022-11-15T05:10:22;1.90;99.90
16966;DHT22;8599;47.852;12.070;2022-11-15T05:12:48;1.90;99.90
16966;DHT22;8599;47.852;12.070;2022-11-15T05:15:15;1.90;99.90
16966;DHT22;8599;47.852;12.070;2022-11-15T05:17:42;1.90;99.90
16966;DHT22;8599;47.852;12.070;2022-11-15T05:20:10;2.00;99.90
16966;DHT22;8599;47.852;12.070;2022-11-15T05:22:38;2.00;99.90
16966;DHT22;8599;47.852;12.070;2022-11-15T05:25:07;2.00;99.90
16966;DHT22;8599;47.852;12.070;2022-11-15T05:27:34;1.90;99.90
16966;DHT22;8599;47.852;12.070;2022-11-15T05:30:01;1.80;99.90
16966;DHT22;8599;47.852;12.070;2022-11-15T05:32:28;1.70;99.90
16966;DHT22;8599;47.852;12.070;2022-11-15T05:34:55;1.60;99.90
16966;DHT22;8599;47.852;12.070;2022-11-15T05:37:22;1.60;99.90
16966;DHT22;8599;47.852;12.070;2022-11-15T05:39:49;1.60;99.90
16966;DHT22;8599;47.852;12.070;2022-11-15T05:42:17;1.70;99.90
16966;DHT22;8599;47.852;12.070;2022-11-15T05:44:47;1.80;99.90
16966;DHT22;8599;47.852;12.070;2022-11-15T05:47:18;1.70;99.90
16966;DHT22;8599;47.852;12.070;2022-11-15T05:49:47;1.80;99.90
16966;DHT22;8599;47.852;12.070;2022-11-15T05:52:17;1.80;99.90
16966;DHT22;8599;47.852;12.070;2022-11-15T05:54:45;1.70;99.90
16966;DHT22;8599;47.852;12.070;2022-11-15T05:57:12;1.70;99.90
16966;DHT22;8599;47.852;12.070;2022-11-15T05:59:40;1.70;99.90
16966;DHT22;8599;47.852;12.070;2022-11-15T06:02:08;1.70;99.90
16966;DHT22;8599;47.852;12.070;2022-11-15T06:04:35;1.80;99.90
16966;DHT22;8599;47.852;12.070;2022-11-15T06:07:02;1.90;99.90
16966;DHT22;8599;47.852;12.070;2022-11-15T06:09:29;1.70;99.90
16966;DHT22;8599;47.852;12.070;2022-11-15T06:11:56;1.80;99.90
16966;DHT22;8599;47.852;12.070;2022-11-15T06:14:22;1.80;99.90
16966;DHT22;8599;47.852;12.070;2022-11-15T06:16:51;1.70;99.90
16966;DHT22;8599;47.852;12.070;2022-11-15T06:19:17;1.60;99.90
16966;DHT22;8599;47.852;12.070;2022-11-15T06:21:44;1.60;99.90
16966;DHT22;8599;47.852;12.070;2022-11-15T06:24:11;1.60;99.90
16966;DHT22;8599;47.852;12.070;2022-11-15T06:26:38;1.70;99.90
16966;DHT22;8599;47.852;12.070;2022-11-15T06:29:05;1.70;99.90
16966;DHT22;8599;47.852;12.070;2022-11-15T06:31:33;1.70;99.90
16966;DHT22;8599;47.852;12.070;2022-11-15T06:34:02;1.80;99.90
16966;DHT22;8599;47.852;12.070;2022-11-15T06:36:29;1.80;99.90
16966;DHT22;8599;47.852;12.070;2022-11-15T06:38:56;1.80;99.90
16966;DHT22;8599;47.852;12.070;2022-11-15T06:41:23;1.80;99.90
16966;DHT22;8599;47.852;12.070;2022-11-15T06:43:50;1.80;99.90
16966;DHT22;8599;47.852;12.070;2022-11-15T06:46:16;1.80;99.90
16966;DHT22;8599;47.852;12.070;2022-11-15T06:48:43;1.90;99.90
16966;DHT22;8599;47.852;12.070;2022-11-15T06:51:12;1.90;99.90
16966;DHT22;8599;47.852;12.070;2022-11-15T06:53:38;1.90;99.90
16966;DHT22;8599;47.852;12.070;2022-11-15T06:56:06;2.00;99.90
16966;DHT22;8599;47.852;12.070;2022-11-15T06:58:34;2.10;99.90
16966;DHT22;8599;47.852;12.070;2022-11-15T07:01:03;2.20;99.90
16966;DHT22;8599;47.852;12.070;2022-11-15T07:03:30;2.30;99.90
16966;DHT22;8599;47.852;12.070;2022-11-15T07:05:57;2.40;99.90
16966;DHT22;8599;47.852;12.070;2022-11-15T07:08:28;2.40;99.90
16966;DHT22;8599;47.852;12.070;2022-11-15T07:10:57;2.50;99.90
16966;DHT22;8599;47.852;12.070;2022-11-15T07:13:25;2.50;99.90
16966;DHT22;8599;47.852;12.070;2022-11-15T07:15:52;2.60;99.90
16966;DHT22;8599;47.852;12.070;2022-11-15T07:18:19;2.70;99.90
16966;DHT22;8599;47.852;12.070;2022-11-15T07:20:46;2.80;99.90
16966;DHT22;8599;47.852;12.070;2022-11-15T07:23:13;2.90;99.90
16966;DHT22;8599;47.852;12.070;2022-11-15T07:25:42;2.90;99.90
16966;DHT22;8599;47.852;12.070;2022-11-15T07:28:09;3.00;99.90
16966;DHT22;8599;47.852;12.070;2022-11-15T07:30:36;3.20;99.90
16966;DHT22;8599;47.852;12.070;2022-11-15T07:33:03;3.30;99.90
16966;DHT22;8599;47.852;12.070;2022-11-15T07:35:30;3.50;99.90
16966;DHT22;8599;47.852;12.070;2022-11-15T07:37:58;3.60;99.90
16966;DHT22;8599;47.852;12.070;2022-11-15T07:40:25;3.80;99.90
16966;DHT22;8599;47.852;12.070;2022-11-15T07:42:58;3.90;99.90
16966;DHT22;8599;47.852;12.070;2022-11-15T07:45:25;4.00;99.90
16966;DHT22;8599;47.852;12.070;2022-11-15T07:47:53;4.10;99.90
16966;DHT22;8599;47.852;12.070;2022-11-15T07:50:21;4.20;99.90
16966;DHT22;8599;47.852;12.070;2022-11-15T07:52:53;4.30;99.90
16966;DHT22;8599;47.852;12.070;2022-11-15T07:55:21;4.40;99.90
16966;DHT22;8599;47.852;12.070;2022-11-15T07:57:48;4.50;99.90
16966;DHT22;8599;47.852;12.070;2022-11-15T08:00:18;4.50;99.90
16966;DHT22;8599;47.852;12.070;2022-11-15T08:02:45;4.50;99.90
16966;DHT22;8599;47.852;12.070;2022-11-15T08:05:12;4.60;99.90
16966;DHT22;8599;47.852;12.070;2022-11-15T08:07:39;4.70;99.90
16966;DHT22;8599;47.852;12.070;2022-11-15T08:10:07;4.80;99.90
16966;DHT22;8599;47.852;12.070;2022-11-15T08:12:34;4.90;99.90
16966;DHT22;8599;47.852;12.070;2022-11-15T08:15:01;5.10;99.90
16966;DHT22;8599;47.852;12.070;2022-11-15T08:17:29;5.20;99.90
16966;DHT22;8599;47.852;12.070;2022-11-15T08:19:58;5.30;99.90
16966;DHT22;8599;47.852;12.070;2022-11-15T08:22:25;5.40;99.90
16966;DHT22;8599;47.852;12.070;2022-11-15T08:24:51;5.50;99.90
16966;DHT22;8599;47.852;12.070;2022-11-15T08:27:18;5.50;99.90
16966;DHT22;8599;47.852;12.070;2022-11-15T08:29:45;5.60;99.90
16966;DHT22;8599;47.852;12.070;2022-11-15T08:32:13;5.70;99.90
16966;DHT22;8599;47.852;12.070;2022-11-15T08:34:42;5.70;99.90
16966;DHT22;8599;47.852;12.070;2022-11-15T08:37:08;5.80;99.90
16966;DHT22;8599;47.852;12.070;2022-11-15T08:39:35;5.80;99.90
16966;DHT22;8599;47.852;12.070;2022-11-15T08:42:03;5.80;99.90
16966;DHT22;8599;47.852;12.070;2022-11-15T08:44:30;5.90;99.90
16966;DHT22;8599;47.852;12.070;2022-11-15T08:46:57;6.00;99.90
16966;DHT22;8599;47.852;12.070;2022-11-15T08:49:23;6.00;99.90
16966;DHT22;8599;47.852;12.070;2022-11-15T08:51:51;6.00;99.90
16966;DHT22;8599;47.852;12.070;2022-11-15T08:54:18;6.00;99.90
16966;DHT22;8599;47.852;12.070;2022-11-15T08:56:45;6.10;99.90
16966;DHT22;8599;47.852;12.070;2022-11-15T08:59:12;6.20;99.90
16966;DHT22;8599;47.852;12.070;2022-11-15T09:01:39;6.30;99.90
16966;DHT22;8599;47.852;12.070;2022-11-15T09:04:05;6.40;99.90
16966;DHT22;8599;47.852;12.070;2022-11-15T09:06:32;6.40;99.90
16966;DHT22;8599;47.852;12.070;2022-11-15T09:09:02;6.40;99.90
16966;DHT22;8599;47.852;12.070;2022-11-15T09:11:29;6.40;99.90
16966;DHT22;8599;47.852;12.070;2022-11-15T09:13:56;6.40;99.90
16966;DHT22;8599;47.852;12.070;2022-11-15T09:16:22;6.60;99.90
16966;DHT22;8599;47.852;12.070;2022-11-15T09:18:49;6.90;99.90
16966;DHT22;8599;47.852;12.070;2022-11-15T09:21:17;7.10;99.90
16966;DHT22;8599;47.852;12.070;2022-11-15T09:23:44;7.40;99.90
16966;DHT22;8599;47.852;12.070;2022-11-15T09:26:12;7.60;99.90
16966;DHT22;8599;47.852;12.070;2022-11-15T09:28:39;7.60;99.90
16966;DHT22;8599;47.852;12.070;2022-11-15T09:31:07;7.70;99.90
16966;DHT22;8599;47.852;12.070;2022-11-15T09:33:34;7.70;99.90
16966;DHT22;8599;47.852;12.070;2022-11-15T09:36:02;7.80;99.90
16966;DHT22;8599;47.852;12.070;2022-11-15T09:38:29;7.80;99.90
16966;DHT22;8599;47.852;12.070;2022-11-15T09:41:22;7.80;99.90
16966;DHT22;8599;47.852;12.070;2022-11-15T09:43:58;7.80;99.90
16966;DHT22;8599;47.852;12.070;2022-11-15T09:46:35;7.70;99.90
16966;DHT22;8599;47.852;12.070;2022-11-15T09:49:04;7.80;99.90
16966;DHT22;8599;47.852;12.070;2022-11-15T09:51:34;7.80;99.90
16966;DHT22;8599;47.852;12.070;2022-11-15T09:54:04;7.90;99.90
16966;DHT22;8599;47.852;12.070;2022-11-15T09:56:40;7.90;99.90
16966;DHT22;8599;47.852;12.070;2022-11-15T09:59:20;7.90;99.90
16966;DHT22;8599;47.852;12.070;2022-11-15T10:01:55;8.00;99.90
16966;DHT22;8599;47.852;12.070;2022-11-15T10:04:24;8.00;99.90
16966;DHT22;8599;47.852;12.070;2022-11-15T10:07:00;8.10;99.90
16966;DHT22;8599;47.852;12.070;2022-11-15T10:09:32;8.20;99.90
16966;DHT22;8599;47.852;12.070;2022-11-15T10:12:01;8.30;99.90
16966;DHT22;8599;47.852;12.070;2022-11-15T10:14:30;8.30;99.90
16966;DHT22;8599;47.852;12.070;2022-11-15T10:17:21;8.20;99.90
16966;DHT22;8599;47.852;12.070;2022-11-15T10:20:02;8.20;99.90
16966;DHT22;8599;47.852;12.070;2022-11-15T10:22:38;8.30;99.90
16966;DHT22;8599;47.852;12.070;2022-11-15T10:25:18;8.40;99.90
16966;DHT22;8599;47.852;12.070;2022-11-15T10:27:52;8.40;99.90
16966;DHT22;8599;47.852;12.070;2022-11-15T10:30:20;8.40;99.90
16966;DHT22;8599;47.852;12.070;2022-11-15T10:32:47;8.60;99.90
16966;DHT22;8599;47.852;12.070;2022-11-15T10:35:23;8.80;99.90
16966;DHT22;8599;47.852;12.070;2022-11-15T10:37:50;8.80;99.90
16966;DHT22;8599;47.852;12.070;2022-11-15T10:40:20;8.90;99.90
16966;DHT22;8599;47.852;12.070;2022-11-15T10:42:49;9.00;99.90
16966;DHT22;8599;47.852;12.070;2022-11-15T10:45:31;9.00;99.90
16966;DHT22;8599;47.852;12.070;2022-11-15T10:51:00;9.00;99.90
16966;DHT22;8599;47.852;12.070;2022-11-15T10:53:31;8.90;99.90
16966;DHT22;8599;47.852;12.070;2022-11-15T10:56:02;9.10;99.90
16966;DHT22;8599;47.852;12.070;2022-11-15T10:58:36;9.10;99.90
16966;DHT22;8599;47.852;12.070;2022-11-15T11:01:14;9.00;99.90
16966;DHT22;8599;47.852;12.070;2022-11-15T11:03:43;9.10;99.90
16966;DHT22;8599;47.852;12.070;2022-11-15T11:06:12;9.10;99.90
16966;DHT22;8599;47.852;12.070;2022-11-15T11:08:40;9.10;99.90
16966;DHT22;8599;47.852;12.070;2022-11-15T11:11:19;9.30;99.90
16966;DHT22;8599;47.852;12.070;2022-11-15T11:13:47;9.50;99.90
16966;DHT22;8599;47.852;12.070;2022-11-15T11:16:25;9.60;99.90
16966;DHT22;8599;47.852;12.070;2022-11-15T11:19:02;9.50;99.90
16966;DHT22;8599;47.852;12.070;2022-11-15T11:21:41;9.70;99.90
16966;DHT22;8599;47.852;12.070;2022-11-15T11:24:17;9.80;99.90
16966;DHT22;8599;47.852;12.070;2022-11-15T11:26:51;9.90;99.90
16966;DHT22;8599;47.852;12.070;2022-11-15T11:29:34;9.90;99.90
16966;DHT22;8599;47.852;12.070;2022-11-15T11:32:19;10.00;99.90
16966;DHT22;8599;47.852;12.070;2022-11-15T11:34:55;10.10;99.90
16966;DHT22;8599;47.852;12.070;2022-11-15T11:37:29;10.20;99.90
16966;DHT22;8599;47.852;12.070;2022-11-15T11:40:10;10.30;99.90
16966;DHT22;8599;47.852;12.070;2022-11-15T11:42:45;10.30;99.90
16966;DHT22;8599;47.852;12.070;2022-11-15T11:45:21;10.40;99.90
16966;DHT22;8599;47.852;12.070;2022-11-15T11:47:55;10.40;99.90
16966;DHT22;8599;47.852;12.070;2022-11-15T11:50:26;10.70;99.90
16966;DHT22;8599;47.852;12.070;2022-11-15T11:52:57;10.90;99.90
16966;DHT22;8599;47.852;12.070;2022-11-15T11:55:28;11.00;99.90
16966;DHT22;8599;47.852;12.070;2022-11-15T11:58:04;11.10;99.90
16966;DHT22;8599;47.852;12.070;2022-11-15T12:00:35;11.20;99.90
16966;DHT22;8599;47.852;12.070;2022-11-15T12:03:09;11.20;99.90
16966;DHT22;8599;47.852;12.070;2022-11-15T12:05:40;11.30;99.90
16966;DHT22;8599;47.852;12.070;2022-11-15T12:08:29;11.30;99.90
16966;DHT22;8599;47.852;12.070;2022-11-15T12:11:03;11.30;99.90
16966;DHT22;8599;47.852;12.070;2022-11-15T12:13:31;11.40;99.90
16966;DHT22;8599;47.852;12.070;2022-11-15T12:16:08;11.50;99.90
16966;DHT22;8599;47.852;12.070;2022-11-15T12:18:39;11.60;99.90
16966;DHT22;8599;47.852;12.070;2022-11-15T12:21:15;11.70;99.90
16966;DHT22;8599;47.852;12.070;2022-11-15T12:23:46;11.80;99.90
16966;DHT22;8599;47.852;12.070;2022-11-15T12:26:17;11.90;99.90
16966;DHT22;8599;47.852;12.070;2022-11-15T12:28:47;12.00;99.90
16966;DHT22;8599;47.852;12.070;2022-11-15T12:31:19;12.10;99.90
16966;DHT22;8599;47.852;12.070;2022-11-15T12:33:48;12.20;99.90
16966;DHT22;8599;47.852;12.070;2022-11-15T12:36:32;12.50;99.90
16966;DHT22;8599;47.852;12.070;2022-11-15T12:39:02;13.20;99.90
16966;DHT22;8599;47.852;12.070;2022-11-15T12:41:30;13.70;99.90
16966;DHT22;8599;47.852;12.070;2022-11-15T12:43:58;13.90;99.90
16966;DHT22;8599;47.852;12.070;2022-11-15T12:47:02;13.70;99.90
16966;DHT22;8599;47.852;12.070;2022-11-15T12:49:46;13.60;99.90
16966;DHT22;8599;47.852;12.070;2022-11-15T12:52:13;13.50;99.90
16966;DHT22;8599;47.852;12.070;2022-11-15T12:55:00;13.80;99.90
16966;DHT22;8599;47.852;12.070;2022-11-15T12:57:37;13.90;99.90
16966;DHT22;8599;47.852;12.070;2022-11-15T13:03:28;13.50;99.90
16966;DHT22;8599;47.852;12.070;2022-11-15T13:05:59;13.40;99.90
16966;DHT22;8599;47.852;12.070;2022-11-15T13:08:41;13.50;99.90
16966;DHT22;8599;47.852;12.070;2022-11-15T13:14:54;13.50;99.90
16966;DHT22;8599;47.852;12.070;2022-11-15T13:17:39;13.60;99.90
16966;DHT22;8599;47.852;12.070;2022-11-15T13:20:22;13.50;99.90
16966;DHT22;8599;47.852;12.070;2022-11-15T13:22:51;13.60;99.90
16966;DHT22;8599;47.852;12.070;2022-11-15T13:25:40;13.60;99.90
16966;DHT22;8599;47.852;12.070;2022-11-15T13:28:20;13.70;99.90
16966;DHT22;8599;47.852;12.070;2022-11-15T13:30:52;13.70;99.90
16966;DHT22;8599;47.852;12.070;2022-11-15T13:33:22;13.80;99.90
16966;DHT22;8599;47.852;12.070;2022-11-15T13:36:02;13.80;99.90
16966;DHT22;8599;47.852;12.070;2022-11-15T13:38:31;13.90;99.90
16966;DHT22;8599;47.852;12.070;2022-11-15T13:40:59;14.00;99.90
16966;DHT22;8599;47.852;12.070;2022-11-15T13:43:36;14.10;99.90
16966;DHT22;8599;47.852;12.070;2022-11-15T13:46:09;14.10;99.90
16966;DHT22;8599;47.852;12.070;2022-11-15T13:48:37;14.20;99.90
16966;DHT22;8599;47.852;12.070;2022-11-15T13:51:12;14.30;99.90
16966;DHT22;8599;47.852;12.070;2022-11-15T13:53:42;14.40;99.90
16966;DHT22;8599;47.852;12.070;2022-11-15T13:56:12;14.50;99.90
16966;DHT22;8599;47.852;12.070;2022-11-15T13:58:39;14.50;99.90
16966;DHT22;8599;47.852;12.070;2022-11-15T14:01:06;14.60;99.90
16966;DHT22;8599;47.852;12.070;2022-11-15T14:03:41;14.60;99.90
16966;DHT22;8599;47.852;12.070;2022-11-15T14:06:16;14.80;99.90
16966;DHT22;8599;47.852;12.070;2022-11-15T14:08:59;14.80;99.90
16966;DHT22;8599;47.852;12.070;2022-11-15T14:11:27;14.80;99.90
16966;DHT22;8599;47.852;12.070;2022-11-15T14:14:08;14.80;99.90
16966;DHT22;8599;47.852;12.070;2022-11-15T14:16:39;14.90;99.90
16966;DHT22;8599;47.852;12.070;2022-11-15T14:19:10;14.90;99.90
16966;DHT22;8599;47.852;12.070;2022-11-15T14:22:08;15.00;99.90
16966;DHT22;8599;47.852;12.070;2022-11-15T14:24:36;14.90;99.90
16966;DHT22;8599;47.852;12.070;2022-11-15T14:27:20;15.00;99.90
16966;DHT22;8599;47.852;12.070;2022-11-15T14:29:48;14.90;99.90
16966;DHT22;8599;47.852;12.070;2022-11-15T14:32:17;14.70;99.90
16966;DHT22;8599;47.852;12.070;2022-11-15T14:34:45;14.30;99.90
16966;DHT22;8599;47.852;12.070;2022-11-15T14:37:24;13.90;99.90
16966;DHT22;8599;47.852;12.070;2022-11-15T14:39:52;13.60;99.90
16966;DHT22;8599;47.852;12.070;2022-11-15T14:42:20;13.30;99.90
16966;DHT22;8599;47.852;12.070;2022-11-15T14:44:48;13.00;99.90
16966;DHT22;8599;47.852;12.070;2022-11-15T14:47:15;12.80;99.90
16966;DHT22;8599;47.852;12.070;2022-11-15T14:49:42;12.50;99.90
16966;DHT22;8599;47.852;12.070;2022-11-15T14:52:24;12.30;99.90
16966;DHT22;8599;47.852;12.070;2022-11-15T14:54:51;12.10;99.90
16966;DHT22;8599;47.852;12.070;2022-11-15T14:57:18;11.90;99.90
16966;DHT22;8599;47.852;12.070;2022-11-15T14:59:45;11.70;99.90
16966;DHT22;8599;47.852;12.070;2022-11-15T15:02:16;11.60;99.90
16966;DHT22;8599;47.852;12.070;2022-11-15T15:04:43;11.50;99.90
16966;DHT22;8599;47.852;12.070;2022-11-15T15:07:10;11.30;99.90
16966;DHT22;8599;47.852;12.070;2022-11-15T15:09:39;11.20;99.90
16966;DHT22;8599;47.852;12.070;2022-11-15T15:12:09;11.10;99.90
16966;DHT22;8599;47.852;12.070;2022-11-15T15:14:38;11.00;99.90
16966;DHT22;8599;47.852;12.070;2022-11-15T15:17:05;10.90;99.90
16966;DHT22;8599;47.852;12.070;2022-11-15T15:19:32;10.80;99.90
16966;DHT22;8599;47.852;12.070;2022-11-15T15:21:58;10.70;99.90
16966;DHT22;8599;47.852;12.070;2022-11-15T15:24:25;10.60;99.90
16966;DHT22;8599;47.852;12.070;2022-11-15T15:26:53;10.60;99.90
16966;DHT22;8599;47.852;12.070;2022-11-15T15:29:20;10.60;99.90
16966;DHT22;8599;47.852;12.070;2022-11-15T15:31:47;10.60;99.90
16966;DHT22;8599;47.852;12.070;2022-11-15T15:34:14;10.40;99.90
16966;DHT22;8599;47.852;12.070;2022-11-15T15:36:41;10.40;99.90
16966;DHT22;8599;47.852;12.070;2022-11-15T15:39:08;10.30;99.90
16966;DHT22;8599;47.852;12.070;2022-11-15T15:41:36;10.30;99.90
16966;DHT22;8599;47.852;12.070;2022-11-15T15:44:04;10.20;99.90
16966;DHT22;8599;47.852;12.070;2022-11-15T15:46:31;10.10;99.90
16966;DHT22;8599;47.852;12.070;2022-11-15T15:48:59;10.10;99.90
16966;DHT22;8599;47.852;12.070;2022-11-15T15:51:26;10.00;99.90
16966;DHT22;8599;47.852;12.070;2022-11-15T15:53:53;9.90;99.90
16966;DHT22;8599;47.852;12.070;2022-11-15T15:56:22;9.90;99.90
16966;DHT22;8599;47.852;12.070;2022-11-15T15:58:49;9.80;99.90
16966;DHT22;8599;47.852;12.070;2022-11-15T16:01:19;9.80;99.90
16966;DHT22;8599;47.852;12.070;2022-11-15T16:03:46;9.80;99.90
16966;DHT22;8599;47.852;12.070;2022-11-15T16:06:35;9.70;99.90
16966;DHT22;8599;47.852;12.070;2022-11-15T16:09:03;9.70;99.90
16966;DHT22;8599;47.852;12.070;2022-11-15T16:11:30;9.70;99.90
16966;DHT22;8599;47.852;12.070;2022-11-15T16:13:56;9.60;99.90